Time;durP1;ratioP1;P1;durP2;ratioP2;P2;SDS_P1;SDS_P2;PMS_P1;PMS_P2;Temp;Humidity;BMP_temperature;BMP_pressure;BME280_temperature;BME280_humidity;BME280_pressure;Samples;Min_cycle;Max_cycle;Signal;HPM_P1;HPM_P2
2021/12/03 00:02:16;;;;;;;12.75;7.05;;;0.10;99.90;;;;;;4959658;28;20249;-79
2021/12/03 00:04:42;;;;;;;14.43;6.90;;;0.00;99.90;;;;;;4964624;28;20113;-79
2021/12/03 00:07:08;;;;;;;11.82;7.15;;;0.10;99.90;;;;;;4962628;28;20040;-79
2021/12/03 00:09:36;;;;;;;12.52;7.05;;;0.10;99.90;;;;;;4959524;28;20290;-79
2021/12/03 00:12:05;;;;;;;18.10;7.68;;;0.00;99.90;;;;;;4957062;28;20541;-79
2021/12/03 00:14:33;;;;;;;13.80;7.50;;;0.00;99.90;;;;;;4940171;28;20682;-79
2021/12/03 00:17:00;;;;;;;13.80;6.90;;;0.00;99.90;;;;;;4942608;28;20847;-79
2021/12/03 00:19:26;;;;;;;12.45;7.07;;;0.00;99.90;;;;;;4987532;28;20057;-78
2021/12/03 00:21:52;;;;;;;13.60;7.57;;;0.00;99.90;;;;;;4942544;28;20103;-79
2021/12/03 00:24:18;;;;;;;15.82;8.23;;;0.20;99.90;;;;;;4959138;28;20485;-79
2021/12/03 00:26:44;;;;;;;15.40;8.85;;;0.30;99.90;;;;;;4972724;28;20460;-79
2021/12/03 00:29:10;;;;;;;13.15;8.02;;;0.30;99.90;;;;;;4976991;28;20443;-79
2021/12/03 00:31:36;;;;;;;15.35;8.23;;;0.30;99.90;;;;;;4977232;28;20155;-79
2021/12/03 00:34:02;;;;;;;14.65;8.15;;;0.30;99.90;;;;;;4981991;28;20731;-79
2021/12/03 00:36:28;;;;;;;14.23;7.75;;;0.40;99.90;;;;;;4981837;28;20441;-78
2021/12/03 00:38:58;;;;;;;15.43;7.85;;;0.40;99.90;;;;;;4978003;28;20417;-79
2021/12/03 00:41:28;;;;;;;15.45;8.25;;;0.40;99.90;;;;;;4945677;28;20048;-79
2021/12/03 00:43:54;;;;;;;12.98;7.55;;;0.30;99.90;;;;;;4960100;28;21072;-79
2021/12/03 00:46:21;;;;;;;14.15;7.85;;;0.50;99.90;;;;;;4964030;28;20052;-79
2021/12/03 00:48:49;;;;;;;13.57;7.97;;;0.50;99.90;;;;;;4963891;28;20736;-79
2021/12/03 00:51:18;;;;;;;10.90;7.57;;;0.30;99.90;;;;;;4940676;28;20082;-79
2021/12/03 00:53:45;;;;;;;14.55;8.15;;;0.30;99.90;;;;;;4961826;28;20610;-79
2021/12/03 00:56:11;;;;;;;12.60;7.85;;;0.40;99.90;;;;;;4962777;28;20481;-78
2021/12/03 00:58:37;;;;;;;15.48;7.85;;;0.30;99.90;;;;;;4971963;28;20526;-79
2021/12/03 01:01:06;;;;;;;15.35;8.93;;;0.40;99.90;;;;;;4967109;28;20865;-79
2021/12/03 01:03:35;;;;;;;16.35;9.45;;;0.40;99.90;;;;;;4980053;28;20055;-80
2021/12/03 01:06:02;;;;;;;19.92;10.85;;;0.40;99.90;;;;;;4955292;28;20285;-79
2021/12/03 01:08:28;;;;;;;16.48;10.10;;;0.40;99.90;;;;;;4980894;28;20037;-79
2021/12/03 01:10:54;;;;;;;20.20;11.10;;;0.50;99.90;;;;;;4994182;28;20060;-79
2021/12/03 01:13:20;;;;;;;17.38;11.73;;;0.50;99.90;;;;;;4960717;28;20864;-79
2021/12/03 01:15:46;;;;;;;19.13;13.10;;;0.40;99.90;;;;;;4949470;28;20066;-79
2021/12/03 01:18:14;;;;;;;19.83;11.95;;;0.50;99.90;;;;;;4962284;28;20059;-79
2021/12/03 01:20:41;;;;;;;20.92;13.27;;;0.40;99.90;;;;;;4987170;28;20702;-79
2021/12/03 01:23:10;;;;;;;21.52;13.43;;;0.40;99.90;;;;;;4946507;28;20052;-79
2021/12/03 01:25:37;;;;;;;23.55;13.90;;;0.40;99.90;;;;;;4974898;28;20262;-79
2021/12/03 01:28:03;;;;;;;19.95;14.40;;;0.40;99.90;;;;;;4960930;28;20398;-80
2021/12/03 01:30:31;;;;;;;24.17;15.82;;;0.50;99.90;;;;;;4958757;28;20037;-80
2021/12/03 01:32:59;;;;;;;22.50;15.63;;;0.40;99.90;;;;;;4976269;28;20328;-79
2021/12/03 01:35:26;;;;;;;22.95;16.48;;;0.50;99.90;;;;;;4957984;28;20122;-80
2021/12/03 01:37:52;;;;;;;25.75;17.05;;;0.50;99.90;;;;;;4964374;28;20049;-79
2021/12/03 01:40:23;;;;;;;28.60;18.17;;;0.50;99.90;;;;;;4980843;28;20219;-78
2021/12/03 01:42:49;;;;;;;23.33;17.45;;;0.50;99.90;;;;;;4975922;28;20115;-78
2021/12/03 01:45:20;;;;;;;29.58;19.00;;;0.50;99.90;;;;;;4978824;28;20036;-79
2021/12/03 01:47:48;;;;;;;25.08;18.63;;;0.60;99.90;;;;;;4960579;28;20049;-79
2021/12/03 01:50:15;;;;;;;28.65;20.15;;;0.50;99.90;;;;;;4968599;28;20155;-78
2021/12/03 01:52:41;;;;;;;30.75;20.65;;;0.50;99.90;;;;;;4982675;28;20055;-79
2021/12/03 01:55:10;;;;;;;30.70;21.15;;;0.50;99.90;;;;;;4962784;28;20052;-79
2021/12/03 01:57:36;;;;;;;29.05;20.95;;;0.50;99.90;;;;;;4966923;28;20068;-78
2021/12/03 02:00:07;;;;;;;32.25;21.25;;;0.50;99.90;;;;;;4964767;28;20048;-79
2021/12/03 02:02:34;;;;;;;31.38;22.10;;;0.60;99.90;;;;;;4956905;28;20057;-79
2021/12/03 02:05:00;;;;;;;31.77;22.45;;;0.50;99.90;;;;;;4962214;28;20045;-79
2021/12/03 02:07:25;;;;;;;36.22;22.08;;;0.50;99.90;;;;;;4966801;28;20051;-79
2021/12/03 02:09:51;;;;;;;32.90;23.90;;;0.60;99.90;;;;;;4959656;28;20052;-79
2021/12/03 02:12:17;;;;;;;29.85;23.25;;;0.70;99.90;;;;;;4955403;28;20239;-79
2021/12/03 02:14:43;;;;;;;33.58;25.23;;;0.60;99.90;;;;;;4962605;28;20045;-80
2021/12/03 02:17:08;;;;;;;35.00;24.42;;;0.60;99.90;;;;;;4982804;28;20063;-80
2021/12/03 02:19:34;;;;;;;33.72;26.08;;;0.70;99.90;;;;;;4941772;28;20045;-79
2021/12/03 02:22:00;;;;;;;33.35;25.23;;;0.70;99.90;;;;;;4958684;28;20051;-79
2021/12/03 02:24:26;;;;;;;33.10;25.27;;;0.80;99.90;;;;;;4952383;28;20713;-80
2021/12/03 02:26:52;;;;;;;36.28;26.00;;;0.80;99.90;;;;;;4963461;28;20056;-79
2021/12/03 02:29:18;;;;;;;40.03;26.90;;;0.80;99.90;;;;;;4957301;28;20437;-79
2021/12/03 02:31:44;;;;;;;34.70;25.50;;;0.90;99.90;;;;;;4946666;28;20067;-80
2021/12/03 02:34:10;;;;;;;34.92;25.27;;;0.80;99.90;;;;;;4951413;28;20430;-79
2021/12/03 02:36:36;;;;;;;33.38;25.73;;;0.90;99.90;;;;;;4949306;28;20107;-79
2021/12/03 02:39:03;;;;;;;34.03;25.77;;;0.90;99.90;;;;;;4955738;28;20086;-80
2021/12/03 02:41:29;;;;;;;33.60;25.95;;;0.90;99.90;;;;;;4954053;28;20390;-80
2021/12/03 02:43:55;;;;;;;31.00;25.83;;;0.80;99.90;;;;;;4955622;28;20048;-79
2021/12/03 02:46:21;;;;;;;35.08;27.17;;;0.90;99.90;;;;;;4957330;28;20045;-79
2021/12/03 02:48:46;;;;;;;38.72;26.63;;;0.90;99.90;;;;;;4955982;28;20044;-79
2021/12/03 02:51:13;;;;;;;32.67;25.52;;;0.90;99.90;;;;;;4975370;28;20048;-79
2021/12/03 02:53:38;;;;;;;34.58;26.58;;;1.00;99.90;;;;;;4960837;28;20045;-79
2021/12/03 02:56:06;;;;;;;34.35;26.42;;;0.90;99.90;;;;;;4954006;28;20083;-79
2021/12/03 02:58:32;;;;;;;31.23;24.98;;;1.00;99.90;;;;;;4960415;28;20994;-78
2021/12/03 03:00:59;;;;;;;32.80;25.55;;;1.00;99.90;;;;;;4959956;28;20571;-79
2021/12/03 03:03:25;;;;;;;31.10;25.00;;;1.00;99.90;;;;;;4962826;28;20067;-79
2021/12/03 03:05:59;;;;;;;29.17;24.67;;;0.90;99.90;;;;;;4983226;28;20099;-79
2021/12/03 03:08:26;;;;;;;31.90;23.88;;;1.00;99.90;;;;;;4978770;28;20036;-79
2021/12/03 03:10:53;;;;;;;31.25;23.60;;;1.00;99.90;;;;;;4975695;28;20058;-80
2021/12/03 03:13:19;;;;;;;31.55;24.48;;;0.90;99.90;;;;;;4972048;28;20048;-80
2021/12/03 03:15:45;;;;;;;29.83;23.13;;;0.90;99.90;;;;;;4954766;28;20050;-80
2021/12/03 03:18:17;;;;;;;28.00;23.15;;;0.90;99.90;;;;;;4957250;28;21039;-79
2021/12/03 03:20:45;;;;;;;28.48;22.70;;;0.90;99.90;;;;;;4974526;28;20052;-79
2021/12/03 03:23:12;;;;;;;30.10;23.60;;;0.90;99.90;;;;;;4974816;28;20132;-79
2021/12/03 03:25:40;;;;;;;26.75;23.08;;;1.00;99.90;;;;;;4957389;28;20588;-79
2021/12/03 03:28:08;;;;;;;28.70;22.50;;;1.00;99.90;;;;;;4979483;28;20131;-79
2021/12/03 03:30:34;;;;;;;27.58;22.55;;;0.90;99.90;;;;;;4965280;28;20398;-79
2021/12/03 03:33:01;;;;;;;28.15;23.00;;;0.90;99.90;;;;;;4962949;28;20052;-79
2021/12/03 03:35:27;;;;;;;28.50;23.65;;;0.90;99.90;;;;;;4996449;28;20163;-79
2021/12/03 03:37:52;;;;;;;29.17;23.63;;;0.90;99.90;;;;;;4967310;28;20265;-79
2021/12/03 03:40:18;;;;;;;29.63;23.30;;;0.90;99.90;;;;;;4975441;28;20045;-79
2021/12/03 03:42:44;;;;;;;28.25;23.38;;;0.80;99.90;;;;;;4960734;28;20742;-79
2021/12/03 03:45:13;;;;;;;30.02;22.90;;;0.90;99.90;;;;;;4976748;28;20159;-78
2021/12/03 03:47:39;;;;;;;30.05;22.88;;;0.80;99.90;;;;;;4981221;28;20883;-79
2021/12/03 03:50:07;;;;;;;32.50;24.38;;;0.90;99.90;;;;;;4959307;28;21005;-79
2021/12/03 03:52:34;;;;;;;26.55;23.20;;;0.90;99.90;;;;;;4957032;28;20061;-79
2021/12/03 03:55:00;;;;;;;30.38;22.85;;;0.90;99.90;;;;;;4956603;28;20052;-78
2021/12/03 03:57:26;;;;;;;28.95;23.90;;;0.80;99.90;;;;;;4959669;28;20633;-78
2021/12/03 03:59:51;;;;;;;28.85;23.98;;;0.90;99.90;;;;;;4981114;28;20993;-78
2021/12/03 04:02:17;;;;;;;31.10;24.27;;;0.80;99.90;;;;;;4960627;28;20432;-78
2021/12/03 04:04:43;;;;;;;29.52;25.02;;;0.90;99.90;;;;;;4962669;28;20097;-78
2021/12/03 04:07:09;;;;;;;31.45;25.17;;;0.80;99.90;;;;;;4960561;28;20044;-78
2021/12/03 04:09:34;;;;;;;32.47;24.63;;;0.80;99.90;;;;;;4979208;28;20037;-79
2021/12/03 04:12:00;;;;;;;30.95;25.08;;;0.70;99.90;;;;;;4955807;28;20159;-79
2021/12/03 04:14:26;;;;;;;33.40;25.92;;;0.80;99.90;;;;;;4979478;28;20783;-79
2021/12/03 04:16:52;;;;;;;35.08;26.27;;;0.90;99.90;;;;;;4982062;28;20047;-79
2021/12/03 04:19:18;;;;;;;30.08;26.02;;;0.90;99.90;;;;;;4958505;28;20067;-78
2021/12/03 04:21:44;;;;;;;32.53;25.92;;;0.90;99.90;;;;;;4956809;28;20972;-79
2021/12/03 04:24:10;;;;;;;35.05;26.77;;;0.80;99.90;;;;;;4974143;28;20075;-79
2021/12/03 04:26:36;;;;;;;37.42;27.90;;;0.90;99.90;;;;;;4964154;28;20167;-78
2021/12/03 04:29:03;;;;;;;33.55;27.13;;;0.80;99.90;;;;;;4959958;28;20053;-79
2021/12/03 04:31:29;;;;;;;37.53;27.33;;;0.80;99.90;;;;;;4979288;28;20110;-78
2021/12/03 04:33:55;;;;;;;34.97;27.20;;;0.80;99.90;;;;;;4960650;28;20049;-79
2021/12/03 04:36:21;;;;;;;37.65;27.65;;;0.90;99.90;;;;;;4971368;28;20139;-79
2021/12/03 04:38:47;;;;;;;36.05;27.45;;;0.90;99.90;;;;;;4957983;28;20457;-79
2021/12/03 04:41:14;;;;;;;34.92;27.38;;;0.90;99.90;;;;;;4959069;28;20060;-78
2021/12/03 04:43:40;;;;;;;37.38;27.27;;;0.80;99.90;;;;;;4956199;28;20545;-79
2021/12/03 04:46:06;;;;;;;35.75;28.10;;;0.80;99.90;;;;;;4959116;28;20077;-79
2021/12/03 04:48:32;;;;;;;36.85;28.65;;;0.80;99.90;;;;;;4974171;28;20044;-79
2021/12/03 04:50:58;;;;;;;38.00;28.90;;;0.80;99.90;;;;;;4961696;28;20048;-80
2021/12/03 04:53:24;;;;;;;44.63;29.55;;;0.80;99.90;;;;;;4957997;28;20401;-79
2021/12/03 04:55:51;;;;;;;43.72;31.92;;;0.80;99.90;;;;;;4959937;28;20056;-79
2021/12/03 04:58:17;;;;;;;45.80;31.00;;;0.90;99.90;;;;;;4978945;28;20041;-79
2021/12/03 05:00:48;;;;;;;46.78;33.47;;;0.90;99.90;;;;;;4966268;28;20048;-79
2021/12/03 05:03:14;;;;;;;45.72;32.75;;;1.00;99.90;;;;;;4961921;28;20807;-79
2021/12/03 05:05:50;;;;;;;47.78;33.97;;;1.00;99.90;;;;;;4963877;28;20147;-79
2021/12/03 05:08:16;;;;;;;53.60;33.60;;;0.90;99.90;;;;;;4949385;28;20055;-79
2021/12/03 05:10:43;;;;;;;45.70;34.10;;;0.90;99.90;;;;;;4979927;28;20048;-78
2021/12/03 05:13:15;;;;;;;47.03;33.75;;;0.80;99.90;;;;;;4959666;28;20958;-79
2021/12/03 05:15:41;;;;;;;43.75;32.78;;;0.90;99.90;;;;;;4959541;28;20048;-78
2021/12/03 05:18:09;;;;;;;50.38;33.88;;;0.90;99.90;;;;;;4961705;28;20060;-79
2021/12/03 05:20:35;;;;;;;48.60;32.65;;;0.90;99.90;;;;;;4963832;28;20810;-79
2021/12/03 05:23:02;;;;;;;50.25;33.03;;;0.90;99.90;;;;;;4965179;28;20063;-78
2021/12/03 05:25:29;;;;;;;49.85;35.00;;;1.00;99.90;;;;;;4963721;28;20119;-78
2021/12/03 05:27:55;;;;;;;49.88;36.95;;;1.00;99.90;;;;;;4983239;28;20041;-79
2021/12/03 05:30:21;;;;;;;50.95;37.13;;;1.10;99.90;;;;;;4985904;28;20060;-80
2021/12/03 05:32:47;;;;;;;53.05;37.90;;;1.10;99.90;;;;;;4952330;28;20457;-80
2021/12/03 05:35:13;;;;;;;52.78;37.65;;;1.00;99.90;;;;;;4975008;28;20096;-79
2021/12/03 05:37:39;;;;;;;60.92;40.63;;;1.00;99.90;;;;;;4960091;28;21183;-79
2021/12/03 05:40:08;;;;;;;60.17;39.72;;;1.10;99.90;;;;;;4975727;28;20960;-78
2021/12/03 05:42:34;;;;;;;56.95;39.45;;;1.10;99.90;;;;;;4965084;28;20051;-79
2021/12/03 05:44:59;;;;;;;54.72;38.50;;;1.10;99.90;;;;;;4963086;28;20445;-79
2021/12/03 05:47:26;;;;;;;53.72;38.47;;;1.10;99.90;;;;;;4959310;28;20068;-79
2021/12/03 05:49:51;;;;;;;59.78;40.83;;;1.00;99.90;;;;;;4957468;28;20084;-78
2021/12/03 05:52:18;;;;;;;57.53;39.85;;;1.10;99.90;;;;;;4957022;28;20471;-80
2021/12/03 05:54:45;;;;;;;58.45;39.85;;;1.10;99.90;;;;;;4955254;28;20056;-80
2021/12/03 05:57:11;;;;;;;59.65;39.13;;;1.00;99.90;;;;;;4960000;28;20102;-78
2021/12/03 05:59:37;;;;;;;60.20;37.95;;;1.10;99.90;;;;;;4972295;28;20044;-79
2021/12/03 06:02:03;;;;;;;60.55;36.78;;;1.00;99.90;;;;;;4955279;28;20048;-79
2021/12/03 06:04:30;;;;;;;61.08;37.67;;;1.00;99.90;;;;;;4958417;28;20092;-79
2021/12/03 06:06:56;;;;;;;62.95;38.35;;;1.10;99.90;;;;;;4953189;28;20838;-79
2021/12/03 06:09:21;;;;;;;61.78;37.33;;;0.90;99.90;;;;;;4957955;28;20230;-80
2021/12/03 06:11:47;;;;;;;60.85;36.75;;;1.00;99.90;;;;;;4952910;28;20739;-79
2021/12/03 06:14:13;;;;;;;59.45;37.28;;;1.00;99.90;;;;;;4954098;28;20214;-78
2021/12/03 06:16:39;;;;;;;61.80;37.33;;;0.90;99.90;;;;;;4972962;28;20044;-80
2021/12/03 06:19:05;;;;;;;63.25;37.58;;;0.90;99.90;;;;;;4962189;28;20106;-79
2021/12/03 06:21:31;;;;;;;62.58;37.05;;;1.00;99.90;;;;;;4977934;28;20055;-79
2021/12/03 06:23:57;;;;;;;60.72;36.15;;;1.00;99.90;;;;;;4984399;28;21016;-79
2021/12/03 06:26:23;;;;;;;61.88;37.63;;;1.00;99.90;;;;;;4980135;28;20044;-79
2021/12/03 06:28:49;;;;;;;65.10;37.30;;;1.00;99.90;;;;;;4965754;28;20045;-78
2021/12/03 06:31:14;;;;;;;65.50;37.50;;;1.00;99.90;;;;;;4938922;28;20044;-79
2021/12/03 06:33:40;;;;;;;62.83;37.13;;;1.10;99.90;;;;;;4980540;28;20055;-80
2021/12/03 06:36:06;;;;;;;71.30;39.38;;;1.10;99.90;;;;;;4958953;28;20584;-79
2021/12/03 06:38:33;;;;;;;72.32;39.63;;;1.10;99.90;;;;;;4957718;28;20059;-79
2021/12/03 06:41:00;;;;;;;77.32;41.08;;;1.20;99.90;;;;;;4957877;28;20057;-79
2021/12/03 06:43:26;;;;;;;82.88;43.05;;;1.10;99.90;;;;;;4957242;28;20052;-80
2021/12/03 06:45:52;;;;;;;78.75;41.65;;;1.20;99.90;;;;;;4974506;28;20979;-80
2021/12/03 06:48:18;;;;;;;73.97;41.35;;;1.10;99.90;;;;;;4947547;28;20040;-78
2021/12/03 06:50:48;;;;;;;84.40;42.58;;;1.30;99.90;;;;;;4956603;28;20525;-80
2021/12/03 06:53:15;;;;;;;80.63;42.78;;;1.30;99.90;;;;;;4987577;28;20039;-80
2021/12/03 06:58:12;;;;;;;78.72;41.13;;;1.30;99.90;;;;;;4976047;28;20056;-79
2021/12/03 07:00:38;;;;;;;69.35;40.42;;;1.30;99.90;;;;;;4959853;28;20053;-79
2021/12/03 07:03:05;;;;;;;79.43;41.85;;;1.30;99.90;;;;;;4962515;28;20146;-79
2021/12/03 07:05:32;;;;;;;80.80;42.25;;;1.30;99.90;;;;;;4961993;28;20048;-81
2021/12/03 07:07:57;;;;;;;82.00;44.03;;;1.40;99.90;;;;;;4962574;28;20075;-80
2021/12/03 07:10:23;;;;;;;75.75;41.20;;;1.40;99.90;;;;;;4963277;28;20045;-80
2021/12/03 07:12:49;;;;;;;88.05;43.72;;;1.40;99.90;;;;;;4958489;28;20047;-80
2021/12/03 07:15:15;;;;;;;76.80;42.58;;;1.50;99.90;;;;;;4959147;28;20098;-80
2021/12/03 07:17:41;;;;;;;79.60;41.53;;;1.50;99.90;;;;;;4980033;28;20058;-80
2021/12/03 07:20:08;;;;;;;75.00;41.72;;;1.40;99.90;;;;;;4965370;28;20052;-81
2021/12/03 07:22:34;;;;;;;81.40;41.97;;;1.50;99.90;;;;;;4956507;28;20263;-81
2021/12/03 07:25:00;;;;;;;76.47;40.92;;;1.50;99.90;;;;;;4954092;28;20634;-80
2021/12/03 07:27:26;;;;;;;85.70;43.72;;;1.70;99.90;;;;;;4958059;28;20064;-80
2021/12/03 07:29:52;;;;;;;78.50;41.58;;;1.60;99.90;;;;;;4958194;28;20640;-80
2021/12/03 07:32:19;;;;;;;79.70;42.33;;;1.60;99.90;;;;;;4963625;28;20086;-79
2021/12/03 07:34:46;;;;;;;81.38;41.83;;;1.60;99.90;;;;;;4959903;28;20048;-80
2021/12/03 07:37:12;;;;;;;76.70;40.72;;;1.70;99.90;;;;;;4955929;28;20937;-80
2021/12/03 07:39:39;;;;;;;79.53;40.00;;;1.70;99.90;;;;;;4958900;28;20100;-80
2021/12/03 07:42:05;;;;;;;79.60;41.30;;;1.70;99.90;;;;;;4964201;28;20047;-80
2021/12/03 07:44:31;;;;;;;71.03;40.35;;;1.70;99.90;;;;;;4980505;28;21860;-79
2021/12/03 07:46:56;;;;;;;78.10;41.28;;;1.80;99.90;;;;;;4964570;28;20044;-79
2021/12/03 07:49:23;;;;;;;75.50;40.83;;;1.80;99.90;;;;;;4959292;28;20051;-79
2021/12/03 07:51:49;;;;;;;78.30;40.55;;;1.90;99.90;;;;;;4978691;28;20640;-80
2021/12/03 07:54:15;;;;;;;81.80;41.42;;;1.80;99.90;;;;;;4978765;28;20092;-79
2021/12/03 07:56:41;;;;;;;85.75;43.67;;;1.80;99.90;;;;;;4956573;28;20084;-79
2021/12/03 07:59:07;;;;;;;87.63;42.83;;;1.80;99.90;;;;;;4982738;28;20109;-80
2021/12/03 08:01:33;;;;;;;93.57;43.30;;;1.90;99.90;;;;;;4958765;28;20238;-81
2021/12/03 08:03:59;;;;;;;104.35;45.13;;;1.80;99.90;;;;;;4963435;28;20423;-81
2021/12/03 08:06:25;;;;;;;103.80;44.83;;;1.90;99.90;;;;;;4961238;28;20927;-78
2021/12/03 08:08:51;;;;;;;97.00;44.33;;;1.90;99.90;;;;;;4979698;28;20494;-80
2021/12/03 08:11:17;;;;;;;101.53;44.90;;;2.00;99.90;;;;;;4959457;28;20052;-80
2021/12/03 08:13:43;;;;;;;109.50;45.00;;;1.90;99.90;;;;;;4962184;28;20128;-80
2021/12/03 08:16:09;;;;;;;106.88;44.40;;;2.10;99.90;;;;;;4975771;28;20060;-79
2021/12/03 08:18:35;;;;;;;117.82;45.72;;;2.00;99.90;;;;;;4961341;28;22012;-82
2021/12/03 08:21:03;;;;;;;116.78;45.40;;;2.10;99.90;;;;;;4966481;28;20138;-83
2021/12/03 08:23:29;;;;;;;110.97;44.20;;;2.10;99.90;;;;;;4986338;28;20068;-80
2021/12/03 08:25:56;;;;;;;116.40;44.83;;;2.10;99.90;;;;;;4952029;28;20052;-82
2021/12/03 08:28:22;;;;;;;116.93;46.08;;;2.10;99.90;;;;;;4961801;28;20331;-80
2021/12/03 08:30:48;;;;;;;128.65;47.15;;;2.20;99.90;;;;;;4960782;28;20562;-80
2021/12/03 08:33:13;;;;;;;115.70;45.03;;;2.20;99.90;;;;;;4952283;28;20519;-80
2021/12/03 08:35:39;;;;;;;119.03;45.15;;;2.40;99.90;;;;;;4982095;28;20118;-82
2021/12/03 08:38:05;;;;;;;117.45;46.22;;;2.30;99.90;;;;;;4954546;28;20045;-83
2021/12/03 08:40:31;;;;;;;123.35;44.33;;;2.40;99.90;;;;;;4960624;28;20406;-80
2021/12/03 08:42:57;;;;;;;123.50;46.65;;;2.50;99.90;;;;;;4963132;28;20052;-81
2021/12/03 08:45:22;;;;;;;125.40;45.70;;;2.50;99.90;;;;;;4960469;28;20048;-80
2021/12/03 08:47:52;;;;;;;121.63;47.45;;;2.40;99.90;;;;;;4958737;28;20045;-82
2021/12/03 08:50:27;;;;;;;119.50;45.60;;;2.50;99.90;;;;;;4961821;28;20045;-83
2021/12/03 08:53:13;;;;;;;121.90;46.72;;;2.60;99.90;;;;;;4958830;28;20094;-82
2021/12/03 08:55:40;;;;;;;127.68;46.30;;;2.60;99.90;;;;;;4957442;28;20048;-81
2021/12/03 08:58:06;;;;;;;117.95;44.35;;;2.70;99.90;;;;;;4963445;28;20056;-81
2021/12/03 09:00:34;;;;;;;114.03;45.55;;;2.70;99.90;;;;;;4946400;28;20044;-82
2021/12/03 09:03:00;;;;;;;111.72;45.47;;;2.70;99.90;;;;;;4964030;28;20404;-80
2021/12/03 09:05:29;;;;;;;109.32;44.55;;;2.80;99.90;;;;;;4940814;28;20066;-81
2021/12/03 09:07:55;;;;;;;111.45;44.10;;;2.80;99.90;;;;;;4962723;28;20944;-81
2021/12/03 09:10:21;;;;;;;100.00;44.40;;;2.80;99.90;;;;;;4955322;28;20916;-83
2021/12/03 09:12:47;;;;;;;101.57;43.45;;;2.90;99.90;;;;;;4943616;28;20043;-85
2021/12/03 09:15:16;;;;;;;97.72;44.20;;;2.90;99.90;;;;;;4952932;28;20155;-82
2021/12/03 09:18:01;;;;;;;99.13;42.15;;;2.90;99.90;;;;;;4969708;28;20047;-82
2021/12/03 09:20:44;;;;;;;93.75;41.53;;;2.90;99.90;;;;;;4944129;28;20044;-82
2021/12/03 09:23:17;;;;;;;99.07;41.75;;;3.00;99.90;;;;;;4980456;28;20731;-81
2021/12/03 09:25:49;;;;;;;87.18;39.85;;;3.10;99.90;;;;;;4965969;28;20144;-83
2021/12/03 09:28:15;;;;;;;89.30;41.03;;;3.10;99.90;;;;;;4942494;28;20563;-81
2021/12/03 09:30:43;;;;;;;83.15;40.72;;;3.10;99.90;;;;;;4963956;28;20052;-82
2021/12/03 09:33:12;;;;;;;85.07;38.88;;;3.20;99.90;;;;;;4967990;28;20373;-82
2021/12/03 09:35:43;;;;;;;77.32;37.92;;;3.20;99.90;;;;;;4949094;28;20063;-82
2021/12/03 09:38:09;;;;;;;82.70;39.40;;;3.20;99.90;;;;;;4967364;28;20131;-82
2021/12/03 09:40:36;;;;;;;75.88;36.20;;;3.20;99.90;;;;;;4963938;28;20048;-81
2021/12/03 09:43:04;;;;;;;63.70;34.97;;;3.30;99.90;;;;;;4971114;28;20036;-82
2021/12/03 09:45:30;;;;;;;66.95;35.38;;;3.30;99.90;;;;;;4974699;28;20117;-83
2021/12/03 09:47:56;;;;;;;59.90;32.00;;;3.20;99.90;;;;;;4969973;28;20036;-83
2021/12/03 09:50:22;;;;;;;65.55;33.17;;;3.30;99.90;;;;;;4964702;28;20308;-83
2021/12/03 09:55:33;;;;;;;52.42;28.85;;;3.30;99.90;;;;;;4982406;28;20049;-82
2021/12/03 09:58:26;;;;;;;52.60;28.40;;;3.20;99.90;;;;;;4946701;28;20562;-83
2021/12/03 10:00:58;;;;;;;51.92;26.63;;;3.30;99.90;;;;;;4970837;28;20844;-83
2021/12/03 10:03:53;;;;;;;56.17;27.73;;;3.30;99.90;;;;;;4964766;28;20110;-82
2021/12/03 10:07:52;;;;;;;46.30;24.88;;;3.40;99.90;;;;;;4968091;28;20056;-81
2021/12/03 10:15:15;;;;;;;39.33;22.00;;;3.50;99.90;;;;;;4965823;28;20056;-83
2021/12/03 10:20:35;;;;;;;37.22;21.42;;;3.50;99.90;;;;;;4988944;28;20052;-85
2021/12/03 10:41:37;;;;;;;27.63;14.70;;;3.60;99.90;;;;;;4981088;28;20552;-86
2021/12/03 10:49:48;;;;;;;28.08;12.35;;;3.60;99.90;;;;;;4963770;28;20045;-81
2021/12/03 11:30:27;;;;;;;16.73;8.07;;;3.80;99.90;;;;;;4967197;28;20044;-86
2021/12/03 11:38:18;;;;;;;22.33;8.23;;;3.80;99.90;;;;;;4957680;28;20099;-82
2021/12/03 11:47:18;;;;;;;15.73;7.53;;;3.70;99.90;;;;;;4963655;28;20136;-81
2021/12/03 12:08:19;;;;;;;18.08;6.78;;;3.40;99.90;;;;;;4928182;28;20616;-81
2021/12/03 12:36:04;;;;;;;25.13;10.70;;;3.30;99.90;;;;;;4943118;28;20073;-83
2021/12/03 12:39:24;;;;;;;23.05;10.75;;;3.30;99.90;;;;;;4942303;28;21222;-83
2021/12/03 13:27:01;;;;;;;19.92;11.00;;;3.90;99.90;;;;;;4981988;28;20044;-82
2021/12/03 13:30:58;;;;;;;22.10;9.65;;;3.90;99.90;;;;;;4960522;28;20084;-83
2021/12/03 14:39:49;;;;;;;22.05;9.02;;;4.20;99.90;;;;;;4941795;28;20748;-84
2021/12/03 14:42:37;;;;;;;18.73;8.75;;;4.20;99.90;;;;;;4955343;28;20941;-81
2021/12/03 14:45:10;;;;;;;21.35;9.52;;;4.20;99.90;;;;;;4942856;28;20553;-82
2021/12/03 14:47:52;;;;;;;17.50;8.38;;;4.20;99.90;;;;;;4946469;28;20156;-86
2021/12/03 14:53:23;;;;;;;35.20;10.30;;;4.20;99.90;;;;;;4952580;28;20844;-82
2021/12/03 14:55:56;;;;;;;18.75;9.00;;;4.20;99.90;;;;;;4965788;28;20885;-84
2021/12/03 14:59:04;;;;;;;18.15;8.63;;;4.20;99.90;;;;;;4961903;28;20045;-85
2021/12/03 15:01:25;;;;;;;19.67;8.00;;;4.20;99.90;;;;;;4953322;28;20048;-83
2021/12/03 15:04:12;;;;;;;17.08;9.02;;;4.30;99.90;;;;;;4970107;28;20202;-83
2021/12/03 15:06:42;;;;;;;;;;;4.30;99.90;;;;;;4966366;28;20147;-83
2021/12/03 15:12:04;;;;;;;19.27;8.43;;;4.30;99.90;;;;;;4949705;28;20924;-84
2021/12/03 15:25:05;;;;;;;16.10;8.48;;;4.30;99.90;;;;;;4947356;28;20055;-83
2021/12/03 15:30:22;;;;;;;15.90;8.20;;;4.40;99.90;;;;;;4968855;28;20471;-84
2021/12/03 16:05:05;;;;;;;14.82;8.65;;;4.40;99.90;;;;;;4977611;28;20139;-84
2021/12/03 16:12:47;;;;;;;15.27;8.90;;;4.40;99.90;;;;;;4949877;28;20086;-85
2021/12/03 16:20:56;;;;;;;13.18;9.65;;;4.40;99.90;;;;;;4952376;28;20215;-84
2021/12/03 16:50:46;;;;;;;12.45;10.77;;;4.50;99.90;;;;;;4972586;28;20655;-84
2021/12/03 16:53:13;;;;;;;15.85;11.68;;;4.50;99.90;;;;;;4969206;28;20220;-84
2021/12/03 16:55:41;;;;;;;15.65;11.43;;;4.50;99.90;;;;;;4974435;28;20098;-83
2021/12/03 16:58:07;;;;;;;15.57;11.82;;;4.50;99.90;;;;;;4952053;28;20061;-83
2021/12/03 17:00:39;;;;;;;13.68;11.35;;;4.50;99.90;;;;;;4964621;28;20492;-84
2021/12/03 17:03:28;;;;;;;14.00;11.43;;;4.50;99.90;;;;;;4959666;28;20891;-84
2021/12/03 17:08:51;;;;;;;13.02;11.63;;;4.50;99.90;;;;;;4987592;28;20079;-83
2021/12/03 17:18:11;;;;;;;16.35;12.90;;;4.60;99.90;;;;;;4966343;28;20461;-83
2021/12/03 17:53:06;;;;;;;18.55;15.68;;;4.70;99.90;;;;;;4943699;28;20860;-84
2021/12/03 17:57:49;;;;;;;17.50;15.10;;;4.70;99.90;;;;;;4996613;28;20048;-84
2021/12/03 18:00:24;;;;;;;18.35;16.35;;;4.70;99.90;;;;;;4959168;28;20055;-85
2021/12/03 18:02:52;;;;;;;18.73;16.73;;;4.70;99.90;;;;;;4972098;28;20060;-83
2021/12/03 18:05:37;;;;;;;20.67;17.55;;;4.70;99.90;;;;;;4974960;28;20460;-86
2021/12/03 18:08:17;;;;;;;21.35;17.63;;;4.70;99.90;;;;;;4977998;28;20615;-83
2021/12/03 18:14:44;;;;;;;23.95;19.08;;;4.60;99.90;;;;;;4945288;28;20048;-85
2021/12/03 18:57:11;;;;;;;30.80;22.13;;;4.70;99.90;;;;;;4952754;28;20673;-83
2021/12/03 18:59:40;;;;;;;29.40;22.25;;;4.70;99.90;;;;;;4984723;28;20052;-84
2021/12/03 19:02:08;;;;;;;25.23;21.80;;;4.70;99.90;;;;;;4951682;28;20301;-83
2021/12/03 19:04:47;;;;;;;27.85;22.55;;;4.70;99.90;;;;;;4974406;28;20820;-84
2021/12/03 19:07:20;;;;;;;29.08;22.70;;;4.70;99.90;;;;;;4973022;28;20052;-83
2021/12/03 19:09:49;;;;;;;28.17;22.08;;;4.70;99.90;;;;;;4970076;28;20127;-83
2021/12/03 19:12:21;;;;;;;26.55;21.50;;;4.70;99.90;;;;;;4970876;28;20547;-83
2021/12/03 19:14:51;;;;;;;26.20;21.65;;;4.70;99.90;;;;;;4999273;28;20062;-84
2021/12/03 19:17:17;;;;;;;25.65;21.00;;;4.80;99.90;;;;;;4974996;28;20132;-84
2021/12/03 19:19:45;;;;;;;26.20;21.48;;;4.70;99.90;;;;;;4969876;28;20398;-85
2021/12/03 19:22:12;;;;;;;24.25;21.20;;;4.70;99.90;;;;;;4954118;28;20176;-83
2021/12/03 19:24:38;;;;;;;26.58;20.85;;;4.80;99.90;;;;;;4996813;28;20744;-83
2021/12/03 19:27:04;;;;;;;22.63;19.70;;;4.80;99.90;;;;;;4949071;28;20047;-84
2021/12/03 19:29:33;;;;;;;22.88;20.23;;;4.80;99.90;;;;;;4978644;28;20087;-84
2021/12/03 19:31:59;;;;;;;23.90;20.13;;;4.80;99.90;;;;;;4971526;28;20049;-83
2021/12/03 19:34:25;;;;;;;23.05;20.15;;;4.80;99.90;;;;;;4953928;28;20056;-84
2021/12/03 19:36:53;;;;;;;22.80;20.23;;;4.80;99.90;;;;;;4971113;28;20097;-84
2021/12/03 19:39:20;;;;;;;25.52;20.85;;;4.80;99.90;;;;;;4962818;28;20052;-83
2021/12/03 19:44:16;;;;;;;24.92;20.58;;;4.80;99.90;;;;;;4965033;28;20066;-86
2021/12/03 19:46:46;;;;;;;26.65;21.17;;;4.80;99.90;;;;;;4970754;28;20083;-84
2021/12/03 19:51:48;;;;;;;27.15;21.67;;;4.80;99.90;;;;;;4961987;28;20055;-83